Time;durP1;ratioP1;P1;durP2;ratioP2;P2;SDS_P1;SDS_P2;PMS_P1;PMS_P2;Temp;Humidity;BMP_temperature;BMP_pressure;BME280_temperature;BME280_humidity;BME280_pressure;Samples;Min_cycle;Max_cycle;Signal;HPM_P1;HPM_P2
2022/05/13 00:01:56;;;;;;;9.80;9.30;;;;;;;13.23;65.29;93131.47;5049387;28;20260;-82
2022/05/13 00:04:21;;;;;;;10.50;9.83;;;;;;;13.50;65.28;93158.63;5051258;28;20824;-82
2022/05/13 00:06:47;;;;;;;10.13;9.43;;;;;;;13.30;65.48;93129.25;5050677;28;20238;-82
2022/05/13 00:09:13;;;;;;;9.33;8.73;;;;;;;12.84;66.06;93071.38;5050376;28;20194;-82
2022/05/13 00:11:39;;;;;;;9.53;8.93;;;;;;;13.25;66.11;93132.72;5050741;28;20253;-82
2022/05/13 00:14:06;;;;;;;10.00;9.40;;;;;;;13.41;65.80;93149.84;5049953;28;20206;-82
2022/05/13 00:16:35;;;;;;;9.63;9.03;;;;;;;12.80;65.91;93068.53;5049301;28;20263;-83
2022/05/13 00:19:01;;;;;;;10.40;9.80;;;;;;;13.32;65.94;93161.25;5048708;28;20221;-82
2022/05/13 00:21:27;;;;;;;10.97;10.10;;;;;;;13.26;66.63;93159.75;5049392;28;20229;-82
2022/05/13 00:23:52;;;;;;;10.67;9.93;;;;;;;13.26;66.67;93152.63;5049840;28;20204;-82
2022/05/13 00:26:19;;;;;;;10.13;9.53;;;;;;;13.13;66.38;93132.38;5049083;28;20229;-82
2022/05/13 00:28:44;;;;;;;9.50;9.00;;;;;;;13.03;66.71;93131.72;5050756;28;20201;-82
2022/05/13 00:31:12;;;;;;;10.10;9.60;;;;;;;13.00;66.98;93146.16;5049910;28;20222;-82
2022/05/13 00:33:38;;;;;;;10.63;9.93;;;;;;;12.70;67.39;93115.03;5048278;28;20253;-82
2022/05/13 00:36:04;;;;;;;9.97;9.43;;;;;;;12.56;67.75;93109.66;5050286;28;20226;-82
2022/05/13 00:38:30;;;;;;;9.90;9.30;;;;;;;12.88;67.25;93161.44;5049509;28;20281;-83
2022/05/13 00:40:55;;;;;;;11.43;9.77;;;;;;;12.69;66.29;93134.41;5049157;28;20221;-82
2022/05/13 00:43:39;;;;;;;10.17;9.47;;;;;;;13.02;66.92;93161.59;5050056;28;20335;-82
2022/05/13 00:46:05;;;;;;;10.03;9.43;;;;;;;12.99;66.91;93168.16;5080810;28;20300;-83
2022/05/13 00:48:30;;;;;;;9.77;9.13;;;;;;;12.68;67.23;93133.59;5049297;28;20204;-81
2022/05/13 00:50:57;;;;;;;11.30;10.70;;;;;;;12.76;66.87;93147.97;5048850;28;20208;-81
2022/05/13 00:53:24;;;;;;;10.23;9.60;;;;;;;12.77;66.94;93141.66;5049091;28;20219;-82
2022/05/13 00:55:51;;;;;;;9.60;9.00;;;;;;;12.79;67.35;93150.03;5048198;28;20218;-82
2022/05/13 00:58:18;;;;;;;9.53;8.97;;;;;;;12.75;67.34;93149.00;5048353;28;20200;-82
2022/05/13 01:00:44;;;;;;;10.97;10.27;;;;;;;12.84;67.83;93163.84;5050359;28;20205;-82
2022/05/13 01:03:11;;;;;;;10.50;9.90;;;;;;;12.87;68.70;93158.03;5052782;28;20182;-82
2022/05/13 01:05:40;;;;;;;10.90;10.30;;;;;;;12.81;68.57;93153.13;5053232;28;20202;-82
2022/05/13 01:08:07;;;;;;;10.47;9.90;;;;;;;12.16;68.63;93075.22;5052258;28;20222;-83
2022/05/13 01:10:35;;;;;;;11.80;11.10;;;;;;;12.73;68.54;93165.00;5053488;28;20247;-82
2022/05/13 01:13:06;;;;;;;10.43;9.77;;;;;;;12.70;67.12;93143.84;5050920;28;20229;-82
2022/05/13 01:15:35;;;;;;;10.07;9.37;;;;;;;12.80;67.04;93164.69;5051853;28;20213;-82
2022/05/13 01:18:07;;;;;;;10.50;9.70;;;;;;;12.76;66.56;93174.16;5052488;28;20249;-81
2022/05/13 01:20:46;;;;;;;10.73;10.13;;;;;;;12.79;66.83;93168.38;5052904;28;20196;-81
2022/05/13 01:23:17;;;;;;;9.73;9.13;;;;;;;12.59;68.02;93131.91;5052496;28;20212;-83
2022/05/13 01:26:05;;;;;;;10.43;9.70;;;;;;;12.73;68.46;93159.00;5052410;28;20186;-82
2022/05/13 01:28:34;;;;;;;10.30;9.60;;;;;;;12.79;68.36;93157.88;5052052;28;20351;-81
2022/05/13 01:31:03;;;;;;;11.47;10.77;;;;;;;12.13;68.44;93060.88;5050786;28;20243;-82
2022/05/13 01:33:29;;;;;;;10.73;10.13;;;;;;;12.85;67.86;93151.53;5052247;28;20452;-82
2022/05/13 01:36:00;;;;;;;10.50;9.80;;;;;;;12.81;67.88;93148.69;5051646;28;20225;-82
2022/05/13 01:38:30;;;;;;;10.63;10.03;;;;;;;12.70;67.68;93141.97;5052312;28;20179;-82
2022/05/13 01:40:56;;;;;;;10.07;9.47;;;;;;;12.45;68.14;93126.50;5051394;28;20190;-82
2022/05/13 01:43:22;;;;;;;11.70;10.90;;;;;;;12.24;68.36;93077.25;5052384;28;20182;-82
2022/05/13 01:45:48;;;;;;;11.13;10.43;;;;;;;12.62;68.90;93137.34;5051812;28;20201;-82
2022/05/13 01:48:14;;;;;;;11.07;10.23;;;;;;;12.32;68.91;93081.88;5052438;28;20189;-82
2022/05/13 01:50:40;;;;;;;10.23;9.67;;;;;;;12.34;68.65;93082.41;5052317;28;20190;-82
2022/05/13 01:53:08;;;;;;;11.23;10.67;;;;;;;12.67;69.02;93128.66;5051779;28;20292;-82
2022/05/13 01:55:34;;;;;;;10.23;9.63;;;;;;;12.55;69.75;93130.88;5051685;28;20220;-82
2022/05/13 01:58:00;;;;;;;9.63;9.13;;;;;;;12.46;69.49;93133.34;5052897;28;20237;-82
2022/05/13 02:00:26;;;;;;;11.17;10.43;;;;;;;12.46;69.54;93132.53;5051530;28;20232;-81
2022/05/13 02:05:36;;;;;;;9.33;8.83;;;;;;;12.39;69.64;93119.00;5052584;28;20223;-82
2022/05/13 02:08:02;;;;;;;10.03;9.50;;;;;;;12.03;70.27;93081.13;5051564;28;20229;-82
2022/05/13 02:10:28;;;;;;;10.27;9.67;;;;;;;12.37;69.06;93123.72;5051739;28;20186;-82
2022/05/13 02:12:53;;;;;;;10.67;9.77;;;;;;;12.17;69.62;93108.22;5051057;28;20273;-79
2022/05/13 02:15:19;;;;;;;11.47;10.37;;;;;;;12.45;69.58;93136.22;5051832;28;20209;-79
2022/05/13 02:17:44;;;;;;;10.13;9.53;;;;;;;12.38;69.54;93136.53;5051526;28;20290;-81
2022/05/13 02:20:10;;;;;;;10.83;10.23;;;;;;;12.35;69.83;93126.63;5052417;28;20202;-79
2022/05/13 02:22:36;;;;;;;9.63;9.13;;;;;;;12.33;69.31;93136.59;5051429;28;20265;-79
2022/05/13 02:25:02;;;;;;;9.63;9.13;;;;;;;12.29;69.90;93126.94;5052253;28;20186;-79
2022/05/13 02:27:28;;;;;;;9.33;8.87;;;;;;;12.30;70.87;93129.28;5051569;28;20233;-79
2022/05/13 02:29:53;;;;;;;10.03;9.53;;;;;;;12.32;71.22;93147.34;5052945;28;20197;-80
2022/05/13 02:32:19;;;;;;;10.93;10.20;;;;;;;12.35;70.53;93141.53;5050797;28;20284;-79
2022/05/13 02:34:45;;;;;;;10.87;10.17;;;;;;;12.18;72.07;93162.13;5052897;28;20190;-79
2022/05/13 02:37:10;;;;;;;10.17;9.60;;;;;;;12.15;71.95;93146.97;5051016;28;20225;-79
2022/05/13 02:39:36;;;;;;;10.83;10.13;;;;;;;12.17;72.04;93156.09;5053060;28;20289;-79
2022/05/13 02:42:01;;;;;;;9.50;8.90;;;;;;;11.82;72.35;93114.50;5051347;28;20234;-79
2022/05/13 02:44:27;;;;;;;11.37;10.77;;;;;;;11.84;72.46;93130.72;5051063;28;20186;-79
2022/05/13 02:46:52;;;;;;;11.13;10.47;;;;;;;11.99;72.53;93162.00;5050186;28;20257;-79
2022/05/13 02:49:18;;;;;;;11.73;11.03;;;;;;;11.85;72.77;93136.72;5053380;28;20215;-79
2022/05/13 02:51:46;;;;;;;11.27;10.47;;;;;;;11.85;72.90;93142.75;5051210;28;20253;-79
2022/05/13 02:54:12;;;;;;;11.37;10.67;;;;;;;11.80;73.27;93139.41;5051741;28;20182;-80
2022/05/13 02:56:38;;;;;;;11.47;10.60;;;;;;;11.86;73.63;93148.75;5050227;28;20237;-79
2022/05/13 02:59:04;;;;;;;11.30;10.57;;;;;;;11.97;73.27;93153.63;5052446;28;20289;-79
2022/05/13 03:01:29;;;;;;;11.87;11.07;;;;;;;11.86;73.35;93149.53;5050369;28;20229;-79
2022/05/13 03:03:55;;;;;;;12.40;11.40;;;;;;;11.83;73.45;93151.94;5052404;28;20185;-80
2022/05/13 03:06:20;;;;;;;12.13;11.03;;;;;;;11.81;73.42;93156.63;5050453;28;20241;-79
2022/05/13 03:08:47;;;;;;;11.93;10.83;;;;;;;11.71;73.62;93128.72;5051966;28;20193;-79
2022/05/13 03:11:13;;;;;;;11.57;10.87;;;;;;;11.68;73.41;93124.03;5049826;28;20234;-80
2022/05/13 03:13:39;;;;;;;11.40;10.70;;;;;;;11.96;73.47;93156.53;5052200;28;20217;-79
2022/05/13 03:16:10;;;;;;;11.60;10.90;;;;;;;12.24;72.02;93153.16;5049990;28;21194;-79
2022/05/13 03:18:39;;;;;;;10.80;10.10;;;;;;;12.68;70.71;93157.19;5049768;28;20265;-79
2022/05/13 03:21:04;;;;;;;11.20;10.50;;;;;;;13.07;69.68;93154.47;5048798;28;20262;-79
2022/05/13 03:23:30;;;;;;;10.83;10.20;;;;;;;13.54;67.44;93151.75;5050823;28;20594;-79
2022/05/13 03:25:56;;;;;;;10.17;9.37;;;;;;;13.60;66.36;93108.66;5050491;28;20202;-79
2022/05/13 03:28:22;;;;;;;11.20;10.50;;;;;;;13.76;66.61;93135.47;5050834;28;20193;-80
2022/05/13 03:30:49;;;;;;;10.70;10.10;;;;;;;13.95;66.25;93154.59;5050414;28;20202;-78
2022/05/13 03:33:14;;;;;;;10.93;10.27;;;;;;;13.70;66.47;93168.84;5050633;28;20177;-79
2022/05/13 03:35:41;;;;;;;11.03;10.23;;;;;;;13.45;67.48;93160.56;5050603;28;20250;-79
2022/05/13 03:38:07;;;;;;;10.97;10.37;;;;;;;13.32;67.68;93159.41;5050438;28;20991;-79
2022/05/13 03:40:32;;;;;;;10.87;10.17;;;;;;;13.28;67.79;93155.78;5049744;28;20210;-78
2022/05/13 03:42:57;;;;;;;11.23;10.40;;;;;;;13.10;66.96;93121.66;5049744;28;20236;-79
2022/05/13 03:45:23;;;;;;;10.83;9.97;;;;;;;13.53;66.85;93173.81;5050673;28;20193;-79
2022/05/13 03:47:49;;;;;;;12.23;11.43;;;;;;;13.58;66.49;93168.50;5049448;28;20280;-79
2022/05/13 03:50:15;;;;;;;11.17;10.47;;;;;;;13.76;67.30;93178.22;5051396;28;20201;-79
2022/05/13 03:52:42;;;;;;;10.63;9.93;;;;;;;13.69;67.89;93169.16;5049263;28;20256;-75
2022/05/13 03:55:08;;;;;;;11.90;11.10;;;;;;;13.73;68.48;93178.00;5049702;28;20198;-76
2022/05/13 03:57:34;;;;;;;11.40;10.70;;;;;;;14.20;66.21;93125.31;5049510;28;20233;-82
2022/05/13 04:00:00;;;;;;;10.93;10.33;;;;;;;15.88;61.71;93190.03;5049710;28;20224;-79
2022/05/13 04:02:27;;;;;;;11.07;10.37;;;;;;;15.82;61.84;93188.59;5049427;28;20252;-75
2022/05/13 04:10:22;;;;;;;11.17;10.03;;;;;;;14.61;66.54;93183.25;5049769;28;20291;-88
2022/05/13 04:18:16;;;;;;;11.00;10.30;;;;;;;15.33;62.37;93208.78;5047119;28;20223;-79
2022/05/13 04:20:42;;;;;;;12.23;11.20;;;;;;;15.16;61.78;93209.34;5049357;28;20190;-78
2022/05/13 04:23:07;;;;;;;11.40;10.60;;;;;;;15.06;62.27;93206.13;5048960;28;20208;-79
2022/05/13 04:25:33;;;;;;;12.37;11.57;;;;;;;15.16;62.26;93200.69;5048742;28;20201;-79
2022/05/13 04:27:58;;;;;;;11.90;11.07;;;;;;;15.09;62.24;93181.88;5049590;28;20241;-80
2022/05/13 04:30:24;;;;;;;12.77;11.53;;;;;;;15.20;62.18;93196.41;5048413;28;20948;-77
2022/05/13 04:32:49;;;;;;;11.40;10.73;;;;;;;15.38;61.57;93203.44;5046928;28;20237;-77
2022/05/13 04:35:16;;;;;;;12.13;11.33;;;;;;;15.31;61.45;93188.03;5048043;28;20182;-79
2022/05/13 04:37:42;;;;;;;12.30;11.40;;;;;;;15.42;61.68;93188.63;5046617;28;20226;-79
2022/05/13 04:40:08;;;;;;;12.17;11.13;;;;;;;15.82;60.25;93212.28;5049269;28;20214;-77
2022/05/13 04:42:51;;;;;;;12.33;11.33;;;;;;;15.88;61.48;93213.72;5047855;28;20214;-75
2022/05/13 04:45:26;;;;;;;13.00;11.83;;;;;;;15.63;61.57;93221.34;5048666;28;20246;-75
2022/05/13 04:50:37;;;;;;;12.07;11.17;;;;;;;15.86;60.46;93210.59;5049550;28;20658;-78
2022/05/13 04:53:05;;;;;;;11.87;10.97;;;;;;;16.02;59.95;93221.59;5049035;28;20221;-78
2022/05/13 04:55:30;;;;;;;11.63;10.83;;;;;;;16.14;59.15;93215.81;5049968;28;20198;-76
2022/05/13 04:57:56;;;;;;;10.93;10.30;;;;;;;16.42;58.65;93228.59;5047863;28;20226;-77
2022/05/13 05:00:22;;;;;;;10.63;9.97;;;;;;;16.80;58.07;93229.84;5048352;28;20212;-77
2022/05/13 05:02:47;;;;;;;11.90;11.03;;;;;;;17.01;57.44;93209.78;5046826;28;20225;-77
2022/05/13 05:05:13;;;;;;;12.43;11.53;;;;;;;17.42;56.16;93227.97;5046997;28;20202;-77
2022/05/13 05:07:38;;;;;;;12.80;11.97;;;;;;;17.47;55.91;93223.38;5048890;28;20293;-76
2022/05/13 05:10:04;;;;;;;11.67;10.87;;;;;;;17.25;57.77;93225.25;5045510;28;20834;-79
2022/05/13 05:12:30;;;;;;;12.63;11.47;;;;;;;17.45;56.34;93219.47;5048276;28;20277;-83
2022/05/13 05:14:55;;;;;;;12.83;11.77;;;;;;;17.46;56.47;93232.34;5048466;28;20671;-82
2022/05/13 05:17:21;;;;;;;13.27;12.27;;;;;;;17.38;57.12;93235.75;5048761;28;20225;-78
2022/05/13 05:19:46;;;;;;;13.20;11.90;;;;;;;18.45;53.99;93247.53;5048624;28;20230;-82
2022/05/13 05:22:12;;;;;;;12.63;11.77;;;;;;;18.95;51.39;93224.78;5048552;28;20217;-79
2022/05/13 05:24:37;;;;;;;14.37;12.73;;;;;;;19.16;51.49;93244.19;5048502;28;20178;-78
2022/05/13 05:27:05;;;;;;;13.97;12.33;;;;;;;20.42;47.52;93249.25;5048457;28;20232;-78
2022/05/13 05:29:30;;;;;;;12.53;11.40;;;;;;;20.14;47.79;93256.16;5049136;28;20184;-79
2022/05/13 05:31:56;;;;;;;13.37;12.27;;;;;;;19.29;50.32;93245.91;5047807;28;20269;-79
2022/05/13 05:34:21;;;;;;;13.67;12.50;;;;;;;19.78;49.67;93231.97;5047690;28;20195;-79
2022/05/13 05:36:47;;;;;;;12.47;11.50;;;;;;;21.73;44.92;93251.94;5047212;28;20266;-79
2022/05/13 05:39:12;;;;;;;14.40;13.20;;;;;;;22.80;41.11;93252.22;5048722;28;20283;-78
2022/05/13 05:41:38;;;;;;;15.65;12.10;;;;;;;24.36;38.94;93258.56;5048311;28;20245;-79
2022/05/13 05:44:03;;;;;;;12.15;11.25;;;;;;;25.55;36.23;93269.06;5049027;28;20247;-78
2022/05/13 05:46:29;;;;;;;11.75;10.82;;;;;;;29.53;29.06;93273.09;5051026;28;20232;-79
2022/05/13 05:48:55;;;;;;;11.90;10.93;;;;;;;30.71;27.53;93275.56;5053603;28;20197;-79
2022/05/13 05:51:20;;;;;;;12.13;11.02;;;;;;;31.73;25.64;93276.03;5051986;28;20271;-79
2022/05/13 05:59:14;;;;;;;12.57;11.55;;;;;;;32.41;25.05;93275.25;5052111;28;20248;-78
2022/05/13 06:01:40;;;;;;;10.80;10.00;;;;;;;33.83;22.69;93281.50;5052172;28;20229;-79
2022/05/13 06:04:06;;;;;;;11.45;10.35;;;;;;;34.33;22.05;93278.88;5052478;28;20185;-79
2022/05/13 06:06:32;;;;;;;11.60;10.63;;;;;;;33.52;22.82;93262.94;5051294;28;20218;-80
2022/05/13 06:09:00;;;;;;;9.80;9.10;;;;;;;33.63;22.98;93277.91;5052463;28;20179;-81
2022/05/13 06:11:26;;;;;;;15.88;10.13;;;;;;;33.72;21.89;93272.75;5051227;28;20264;-80
2022/05/13 06:13:53;;;;;;;10.52;9.65;;;;;;;35.06;20.91;93276.91;5052603;28;20196;-80
2022/05/13 06:16:19;;;;;;;10.20;9.40;;;;;;;35.44;19.87;93275.41;5051688;28;20236;-79
2022/05/13 06:18:45;;;;;;;10.43;9.48;;;;;;;34.01;21.54;93262.31;5052670;28;20241;-80
2022/05/13 06:21:10;;;;;;;9.27;8.63;;;;;;;35.60;19.24;93267.34;5052132;28;20236;-80
2022/05/13 06:23:36;;;;;;;9.30;8.60;;;;;;;36.05;19.13;93269.53;5051873;28;20190;-80
2022/05/13 06:26:02;;;;;;;8.63;8.02;;;;;;;36.35;18.46;93264.56;5051671;28;20345;-80
2022/05/13 06:28:28;;;;;;;9.02;8.35;;;;;;;35.01;20.28;93265.75;5050545;28;20186;-80
2022/05/13 06:30:54;;;;;;;9.55;8.73;;;;;;;30.16;25.77;93261.69;5051430;28;20274;-80
2022/05/13 06:33:19;;;;;;;10.90;9.85;;;;;;;25.97;32.21;93231.56;5053334;28;20182;-80
2022/05/13 06:35:45;;;;;;;10.32;9.63;;;;;;;24.29;35.11;93229.03;5051217;28;20181;-79
2022/05/13 06:38:22;;;;;;;12.35;11.18;;;;;;;23.33;37.40;93225.91;5052956;28;20726;-79
2022/05/13 06:40:49;;;;;;;12.02;10.93;;;;;;;22.55;38.96;93222.25;5051383;28;20198;-79
2022/05/13 06:43:15;;;;;;;12.85;11.55;;;;;;;21.73;43.11;93228.00;5051677;28;20189;-79
2022/05/13 06:45:41;;;;;;;13.32;11.77;;;;;;;20.25;44.90;93214.13;5051359;28;20192;-79
2022/05/13 06:48:07;;;;;;;11.70;10.60;;;;;;;20.33;46.62;93203.44;5050997;28;20260;-79
2022/05/13 06:50:33;;;;;;;11.77;10.80;;;;;;;20.58;46.54;93217.63;5051605;28;20245;-79
2022/05/13 06:52:59;;;;;;;12.65;11.65;;;;;;;20.53;45.39;93218.59;5053357;28;20230;-79
2022/05/13 06:55:25;;;;;;;14.98;11.40;;;;;;;20.36;46.39;93210.75;5052238;28;20262;-78
2022/05/13 06:57:50;;;;;;;11.90;10.95;;;;;;;21.03;44.84;93207.84;5051183;28;20225;-78
2022/05/13 07:00:17;;;;;;;13.57;11.93;;;;;;;20.88;45.54;93210.31;5051016;28;20211;-78
2022/05/13 07:02:43;;;;;;;13.55;12.43;;;;;;;20.64;46.19;93195.06;5050306;28;20231;-79
2022/05/13 07:05:10;;;;;;;10.98;10.05;;;;;;;20.97;46.06;93209.19;5051395;28;20220;-79
2022/05/13 07:07:36;;;;;;;11.23;10.52;;;;;;;21.30;45.57;93198.53;5050789;28;20240;-78
2022/05/13 07:10:02;;;;;;;12.70;11.65;;;;;;;20.87;45.67;93187.53;5051148;28;20244;-79
2022/05/13 07:12:29;;;;;;;11.68;10.88;;;;;;;20.93;47.32;93210.13;5050407;28;20241;-79
2022/05/13 07:14:54;;;;;;;11.23;10.32;;;;;;;20.55;47.42;93205.00;5052114;28;20201;-78
2022/05/13 07:17:20;;;;;;;12.07;11.18;;;;;;;21.07;46.99;93205.34;5051295;28;20225;-78
2022/05/13 07:19:46;;;;;;;11.57;10.77;;;;;;;21.32;44.63;93212.25;5052432;28;20224;-77
2022/05/13 07:22:11;;;;;;;11.77;10.77;;;;;;;20.81;45.82;93175.59;5050580;28;20237;-78
2022/05/13 07:24:37;;;;;;;12.00;10.73;;;;;;;21.15;45.50;93210.56;5050204;28;20203;-78
2022/05/13 07:27:02;;;;;;;12.02;10.95;;;;;;;21.26;45.92;93197.63;5050367;28;20225;-79
2022/05/13 07:29:28;;;;;;;10.93;10.18;;;;;;;21.25;45.13;93204.03;5051249;28;20309;-78
2022/05/13 07:31:53;;;;;;;11.63;10.68;;;;;;;20.52;46.82;93184.41;5050571;28;20238;-78
2022/05/13 07:34:19;;;;;;;12.02;11.02;;;;;;;21.01;47.19;93204.00;5051453;28;20732;-78
2022/05/13 07:36:45;;;;;;;11.98;10.90;;;;;;;21.21;45.21;93190.66;5050325;28;20235;-79
2022/05/13 07:41:54;;;;;;;10.60;10.00;;;;;;;21.56;44.43;93198.97;5049449;28;20237;-79
2022/05/13 07:44:20;;;;;;;11.73;10.93;;;;;;;21.73;44.55;93199.56;5049675;28;20250;-79
2022/05/13 07:46:45;;;;;;;11.60;10.73;;;;;;;21.94;44.00;93194.16;5050090;28;20270;-78
2022/05/13 07:49:12;;;;;;;11.55;10.68;;;;;;;21.55;42.97;93184.16;5050084;28;20327;-78
2022/05/13 07:51:37;;;;;;;12.48;11.25;;;;;;;21.61;43.86;93193.47;5050904;28;20238;-78
2022/05/13 07:54:03;;;;;;;10.98;10.07;;;;;;;21.23;45.15;93193.75;5050882;28;20221;-78
2022/05/13 07:56:29;;;;;;;12.48;11.23;;;;;;;21.44;45.48;93189.13;5049933;28;20240;-78
2022/05/13 07:58:57;;;;;;;10.73;9.80;;;;;;;21.71;44.06;93169.84;5049975;28;20207;-79
2022/05/13 08:01:23;;;;;;;11.30;10.40;;;;;;;21.94;43.95;93192.28;5049843;28;20228;-78
2022/05/13 08:03:49;;;;;;;11.18;10.18;;;;;;;21.91;43.37;93176.22;5049859;28;20200;-78
2022/05/13 08:06:14;;;;;;;11.35;10.27;;;;;;;21.64;43.49;93184.81;5050087;28;20223;-79
2022/05/13 08:08:42;;;;;;;11.20;10.40;;;;;;;21.20;45.89;93185.69;5050213;28;20246;-79
2022/05/13 08:11:11;;;;;;;11.68;10.63;;;;;;;21.60;44.76;93183.94;5049653;28;20232;-78
2022/05/13 08:13:38;;;;;;;12.55;11.55;;;;;;;21.91;43.52;93179.66;5048504;28;20886;-79
2022/05/13 08:16:06;;;;;;;11.18;10.38;;;;;;;22.21;42.69;93180.91;5048831;28;20253;-78
2022/05/13 08:18:32;;;;;;;11.50;10.45;;;;;;;21.65;43.92;93146.53;5049695;28;20981;-79
2022/05/13 08:20:58;;;;;;;10.85;10.05;;;;;;;21.27;45.13;93169.97;5049368;28;20230;-79
2022/05/13 08:23:23;;;;;;;11.65;10.70;;;;;;;21.82;42.11;93159.59;5049284;28;20219;-77
2022/05/13 08:25:49;;;;;;;11.00;10.10;;;;;;;22.05;43.07;93158.03;5049422;28;20210;-78
2022/05/13 08:28:16;;;;;;;11.57;10.23;;;;;;;21.91;41.66;93173.56;5049937;28;20258;-78
2022/05/13 08:30:43;;;;;;;11.20;10.45;;;;;;;21.74;45.46;93174.50;5049645;28;20197;-78
2022/05/13 08:33:09;;;;;;;10.65;9.65;;;;;;;21.56;44.24;93151.16;5050917;28;20179;-79
2022/05/13 08:35:39;;;;;;;10.98;10.15;;;;;;;21.72;43.15;93160.00;5050534;28;20859;-78
2022/05/13 08:38:06;;;;;;;11.13;10.00;;;;;;;21.97;41.48;93150.94;5051023;28;20242;-78
2022/05/13 08:40:43;;;;;;;11.15;10.20;;;;;;;21.66;42.87;93166.66;5050997;28;20261;-79
2022/05/13 08:43:16;;;;;;;11.00;10.15;;;;;;;22.30;41.62;93169.38;5049519;28;20240;-78
2022/05/13 08:45:50;;;;;;;11.77;10.35;;;;;;;22.49;41.97;93166.88;5048527;28;20252;-78
2022/05/13 08:48:20;;;;;;;16.00;10.30;;;;;;;22.46;42.21;93151.59;5048582;28;20183;-78
2022/05/13 08:51:17;;;;;;;10.35;9.45;;;;;;;22.27;40.84;93146.88;5049666;28;20196;-78
2022/05/13 08:53:52;;;;;;;11.25;10.35;;;;;;;22.47;40.70;93156.59;5048915;28;20695;-78
2022/05/13 08:56:26;;;;;;;10.68;9.80;;;;;;;22.69;40.22;93157.97;5047760;28;20228;-79
2022/05/13 08:59:08;;;;;;;11.57;10.43;;;;;;;22.85;41.01;93137.50;5049514;28;20225;-78
2022/05/13 09:01:53;;;;;;;10.18;9.48;;;;;;;22.67;43.55;93150.31;5050245;28;20227;-79
2022/05/13 09:04:54;;;;;;;11.90;11.00;;;;;;;22.95;40.99;93152.94;5049316;28;20226;-78
2022/05/13 09:07:20;;;;;;;12.65;11.65;;;;;;;22.82;42.14;93154.91;5049535;28;20248;-79
2022/05/13 09:09:52;;;;;;;10.50;9.82;;;;;;;22.26;41.48;93132.03;5048839;28;20195;-79
2022/05/13 09:12:36;;;;;;;9.95;9.32;;;;;;;22.63;39.46;93144.09;5048912;28;20240;-78
2022/05/13 09:15:33;;;;;;;10.15;9.45;;;;;;;23.10;39.51;93142.31;5049192;28;20776;-79
2022/05/13 09:18:33;;;;;;;9.85;9.15;;;;;;;23.24;39.19;93137.34;5048522;28;20232;-78
2022/05/13 09:21:02;;;;;;;10.30;9.32;;;;;;;23.29;39.27;93139.78;5049604;28;20238;-79
2022/05/13 09:23:28;;;;;;;11.07;9.93;;;;;;;23.36;41.24;93131.94;5052506;28;20182;-79
2022/05/13 09:26:05;;;;;;;10.70;9.80;;;;;;;23.64;38.47;93135.28;5053653;28;20202;-78
2022/05/13 09:28:33;;;;;;;10.35;9.65;;;;;;;23.63;38.22;93131.09;5053546;28;20187;-79
2022/05/13 09:31:19;;;;;;;11.05;10.18;;;;;;;23.33;38.03;93121.97;5053545;28;20294;-78
2022/05/13 09:33:47;;;;;;;11.48;10.57;;;;;;;23.17;37.60;93110.53;5051213;28;20203;-78
2022/05/13 09:36:31;;;;;;;10.27;9.50;;;;;;;22.86;39.94;93117.72;5052111;28;20262;-78
2022/05/13 09:39:00;;;;;;;10.65;9.55;;;;;;;23.33;39.69;93114.00;5052273;28;20222;-78
2022/05/13 09:41:34;;;;;;;13.50;9.80;;;;;;;23.77;39.24;93113.88;5052701;28;20232;-78
2022/05/13 09:44:10;;;;;;;10.02;9.32;;;;;;;23.53;36.95;93104.94;5053146;28;20187;-79
2022/05/13 09:47:10;;;;;;;8.95;8.45;;;;;;;23.70;38.41;93104.56;5051738;28;20284;-78
2022/05/13 09:49:39;;;;;;;9.55;8.85;;;;;;;23.80;37.67;93094.50;5050289;28;20205;-78
2022/05/13 09:52:09;;;;;;;10.52;9.75;;;;;;;23.72;35.93;93091.66;5051875;28;20251;-78
2022/05/13 09:54:47;;;;;;;9.30;8.60;;;;;;;23.13;37.54;93077.69;5052432;28;20207;-79
2022/05/13 09:57:21;;;;;;;15.60;9.60;;;;;;;22.83;38.09;93087.22;5049873;28;20227;-79
2022/05/13 10:00:22;;;;;;;9.23;8.70;;;;;;;23.02;39.01;93050.03;5052407;28;20255;-80
2022/05/13 10:02:49;;;;;;;9.45;8.80;;;;;;;23.73;36.68;93077.25;5048400;28;20236;-78
2022/05/13 10:05:19;;;;;;;10.48;9.77;;;;;;;23.91;36.00;93079.50;5052860;28;20252;-78
2022/05/13 10:07:53;;;;;;;9.23;8.50;;;;;;;23.87;34.73;93075.97;5051498;28;20248;-79
2022/05/13 10:15:59;;;;;;;9.95;9.15;;;;;;;24.23;35.32;93057.72;5053325;28;20198;-78
2022/05/13 10:18:31;;;;;;;9.20;8.50;;;;;;;24.45;34.66;93064.25;5053193;28;20196;-78
2022/05/13 10:21:08;;;;;;;9.93;9.25;;;;;;;23.83;34.97;93043.88;5053545;28;20192;-79
2022/05/13 10:23:54;;;;;;;9.43;8.80;;;;;;;24.00;34.28;93042.75;5052671;28;20210;-79
2022/05/13 10:26:24;;;;;;;9.40;8.60;;;;;;;24.36;34.44;93055.69;5052762;28;20240;-78
2022/05/13 10:29:04;;;;;;;8.90;8.40;;;;;;;24.55;33.07;93058.31;5051986;28;20197;-79
2022/05/13 10:31:34;;;;;;;9.35;8.82;;;;;;;24.39;34.66;93052.31;5050531;28;20239;-79
2022/05/13 10:34:09;;;;;;;8.85;8.38;;;;;;;24.39;34.85;93052.31;5051333;28;20200;-78
2022/05/13 10:36:58;;;;;;;8.55;8.05;;;;;;;24.49;34.04;93055.19;5051917;28;20251;-78
2022/05/13 10:39:28;;;;;;;9.15;8.57;;;;;;;24.80;34.96;93055.00;5052045;28;20208;-78
2022/05/13 10:42:01;;;;;;;8.80;8.20;;;;;;;24.83;31.78;93054.28;5051037;28;20255;-78
2022/05/13 10:44:55;;;;;;;10.02;8.52;;;;;;;24.50;33.42;93035.34;5051446;28;20192;-77
2022/05/13 10:47:43;;;;;;;9.23;8.63;;;;;;;24.68;35.11;93044.50;5049109;28;20225;-78
2022/05/13 10:50:25;;;;;;;8.93;8.27;;;;;;;24.58;35.85;93044.25;5051278;28;20221;-79
2022/05/13 10:53:28;;;;;;;9.30;8.70;;;;;;;24.93;33.51;93036.91;5051368;28;20247;-78
2022/05/13 10:56:08;;;;;;;8.80;8.27;;;;;;;24.44;33.63;93009.28;5028570;28;20263;-78
2022/05/13 10:58:56;;;;;;;8.95;8.45;;;;;;;24.51;35.39;93036.13;5048623;28;20205;-79
2022/05/13 11:01:57;;;;;;;9.82;9.23;;;;;;;24.36;34.40;93019.06;5050963;28;20217;-78
2022/05/13 11:04:48;;;;;;;8.60;8.20;;;;;;;24.50;35.35;93024.66;5051702;28;20207;-79
2022/05/13 11:07:33;;;;;;;9.30;8.80;;;;;;;24.52;35.95;92990.38;5082433;28;20262;-78
2022/05/13 11:10:03;;;;;;;9.00;8.50;;;;;;;24.85;34.80;93021.88;5050289;28;20201;-78
2022/05/13 11:12:58;;;;;;;9.45;8.73;;;;;;;24.91;34.87;93021.22;5049870;28;20256;-78
2022/05/13 11:15:43;;;;;;;9.15;8.65;;;;;;;24.74;36.05;92983.53;5050348;28;20188;-78
2022/05/13 11:18:34;;;;;;;8.15;7.65;;;;;;;24.93;35.51;92996.84;5050584;28;20221;-79
2022/05/13 11:21:18;;;;;;;7.53;7.03;;;;;;;25.19;34.63;93008.31;5036057;28;20262;-78
2022/05/13 11:27:14;;;;;;;8.60;8.00;;;;;;;25.36;32.55;92980.34;5050534;28;20349;-79
2022/05/13 11:30:09;;;;;;;8.60;7.85;;;;;;;25.00;33.90;92944.28;5032743;28;20272;-78
2022/05/13 11:32:40;;;;;;;9.35;8.77;;;;;;;25.32;34.49;92984.84;5047040;28;20228;-78
2022/05/13 11:35:27;;;;;;;8.82;8.32;;;;;;;25.23;34.88;92979.00;5051828;28;20208;-78
2022/05/13 11:37:59;;;;;;;8.48;7.97;;;;;;;25.41;33.14;92981.91;5049473;28;20252;-78
2022/05/13 11:40:49;;;;;;;8.20;7.80;;;;;;;25.49;31.50;92979.00;5050704;28;20205;-78
2022/05/13 11:43:46;;;;;;;8.77;8.23;;;;;;;25.34;32.12;92971.16;5028736;28;20211;-78
2022/05/13 11:46:14;;;;;;;8.70;8.20;;;;;;;25.44;31.70;92971.28;5030806;28;20234;-78
2022/05/13 11:49:03;;;;;;;8.30;7.47;;;;;;;25.34;32.37;92968.47;5029317;28;20221;-78
2022/05/13 11:51:33;;;;;;;8.98;8.40;;;;;;;25.15;31.30;92939.91;5027246;28;20241;-78
2022/05/13 11:53:59;;;;;;;8.70;8.07;;;;;;;25.44;31.35;92971.28;5028980;28;20186;-77
2022/05/13 11:56:30;;;;;;;8.88;8.32;;;;;;;25.05;31.36;92964.56;5031525;28;20290;-78
2022/05/13 11:59:03;;;;;;;7.50;7.18;;;;;;;25.21;31.39;92970.56;5031736;28;20214;-78
2022/05/13 12:01:34;;;;;;;8.48;7.97;;;;;;;25.01;31.67;92963.75;5030097;28;20233;-79
2022/05/13 12:04:15;;;;;;;8.52;8.02;;;;;;;25.08;30.98;92953.16;5030514;28;20185;-78
2022/05/13 12:06:50;;;;;;;8.18;7.68;;;;;;;25.07;29.77;92954.31;5030241;28;20237;-78
2022/05/13 12:09:44;;;;;;;9.45;8.75;;;;;;;25.12;30.81;92951.34;5029890;28;20184;-78